BIMK weather

MĂșlakot Airport
MĂșlakot, Southern Region, Iceland

Public forecast

Using degrees Celsius for public forecast. Weather courtesy of forecast.io.

METAR (pilot weather report)

Closest report is Vestmannaeyjar Airport, 20.4 nm (37.8 km) SSW. Retrieved 2019/04/20 16:00 UTC (25 minutes ago):

BIVM 201600Z 22017KT 9000 -RA VCSH SCT015 BKN025 06/05 Q1007

TAF (pilot weather forecast)

Closest forecast is Reykjavik Airport, 59.9 nm (110.9 km) WNW. Retrieved 2019/04/20 15:21 UTC (1 hour ago):

TAF BIRK 201319Z 2015/2115 23016KT 9999 -SHRA BKN030 TX08/2015Z TN04/2106Z TEMPO 2015/2019 22018G28KT 4000 RA BKN014 OVC025 BECMG 2100/2103 23008KT BECMG 2106/2108 11012KT